Main page
METAR-TAF:

METAR-TAF

Airports :

Deputado Luís Eduardo Magalhães International Airport

Salvador, Bahia, Brazil

latitude: 12-54S, longitude: 038-20W, elevation: 6 m

Current weather observation

The report was made 27 minutes ago, at 14:00 UTC
Wind 10 kt from the East, varying between Northeast and East/Southeast
Temperature 29°C
Humidity 70%
Pressure 1014 hPa
Visibility 10 km or more
Few clouds at a height of 2000 ft

METAR: SBSV 141400Z 09010KT 050V120 9999 FEW020 29/23 Q1014

Time: 11:27 (14:27 UTC)

Forecast

The report was made 4 hours and 27 minutes ago, at 10:00 UTC
Forecast valid from 14 at 12 UTC to 15 at 12 UTC
Wind 10 kt from the East
Visibility 10 km or more
Scattered clouds at a height of 2000 ft

TAF: SBSV 141000Z 1412/1512 08010KT 9999 SCT020 TX30/1415Z TN26/1508Z RMK PCN

Weather observations and forecasts of more than 4000 airports (METAR and TAF reports).

The available stations are represented by yellow and red dots on the map.

Hover mouse over dot to see the name of the station.

Then click to see weather observations and forecasts.

To change the map : click on the green buttons with a black cross to zoom in, on the green button with a dash to zoom out, or on the green arrows for adjacent maps.


METAR-TAF: